Time;durP1;ratioP1;P1;durP2;ratioP2;P2;SDS_P1;SDS_P2;PMS_P1;PMS_P2;Temp;Humidity;BMP_temperature;BMP_pressure;BME280_temperature;BME280_humidity;BME280_pressure;Samples;Min_cycle;Max_cycle;Signal;HPM_P1;HPM_P2
2023/01/02 00:04:37;;;;;;;5.22;2.33;;;;;;;15.24;53.77;100045.97;10347722;28;20319;-87
2023/01/02 00:09:59;;;;;;;5.20;1.75;;;;;;;15.02;54.50;100037.09;10328361;28;20201;-87
2023/01/02 00:15:22;;;;;;;9.38;2.38;;;;;;;15.04;54.62;100057.34;10329568;28;20213;-87
2023/01/02 00:20:44;;;;;;;6.65;2.25;;;;;;;14.72;55.83;100056.28;10348809;28;20232;-87
2023/01/02 00:26:06;;;;;;;6.00;1.98;;;;;;;14.91;54.94;100054.53;10354981;28;20224;-85
2023/01/02 00:31:29;;;;;;;4.43;1.60;;;;;;;14.84;55.12;100059.94;10323871;28;20248;-85
2023/01/02 00:36:52;;;;;;;5.88;2.28;;;;;;;14.57;56.03;100066.25;10338368;28;20693;-85
2023/01/02 00:42:15;;;;;;;5.70;2.00;;;;;;;14.90;55.17;100044.41;10326166;28;20221;-87
2023/01/02 00:47:38;;;;;;;8.97;1.77;;;;;;;15.27;54.05;100039.56;10320667;28;20225;-87
2023/01/02 00:53:01;;;;;;;5.20;2.00;;;;;;;14.61;56.31;100036.13;10346464;28;20279;-87
2023/01/02 00:58:25;;;;;;;10.93;2.43;;;;;;;14.37;57.85;100050.13;10351702;28;20339;-84
2023/01/02 01:03:47;;;;;;;6.35;2.20;;;;;;;14.68;58.47;100053.31;10328002;28;20487;-87
2023/01/02 01:09:10;;;;;;;10.88;2.13;;;;;;;14.63;59.24;100042.25;10316878;28;20209;-85
2023/01/02 01:14:33;;;;;;;4.57;1.87;;;;;;;14.97;59.65;100032.53;10342901;28;20213;-87
2023/01/02 01:19:56;;;;;;;4.28;1.95;;;;;;;14.50;61.83;100049.03;10338409;28;20467;-86
2023/01/02 01:25:19;;;;;;;6.53;2.17;;;;;;;14.45;62.83;100035.13;10343766;28;20270;-87
2023/01/02 01:30:41;;;;;;;4.15;1.83;;;;;;;14.75;61.92;100045.09;10335696;28;20197;-88
2023/01/02 01:36:07;;;;;;;5.00;2.20;;;;;;;14.97;61.00;100038.19;10346753;28;20217;-88
2023/01/02 01:41:29;;;;;;;8.73;2.37;;;;;;;14.93;61.44;100032.41;10336264;28;20251;-89
2023/01/02 01:46:53;;;;;;;4.93;1.80;;;;;;;15.17;60.29;100039.22;10348178;28;20271;-87
2023/01/02 01:52:18;;;;;;;9.37;2.10;;;;;;;14.98;61.10;100048.31;10341175;28;20202;-89
2023/01/02 01:57:49;;;;;;;9.73;2.40;;;;;;;14.99;60.55;100038.66;10339291;28;20288;-85
2023/01/02 02:03:17;;;;;;;6.10;2.10;;;;;;;14.73;61.50;100047.47;10337827;28;20198;-90
2023/01/02 02:09:07;;;;;;;7.63;1.87;;;;;;;14.57;60.89;100044.47;10341557;28;20194;-89
2023/01/02 02:14:30;;;;;;;7.93;2.13;;;;;;;14.80;59.81;100050.50;10356376;28;20677;-88
2023/01/02 02:20:07;;;;;;;7.30;2.05;;;;;;;14.90;59.43;100041.56;10342490;28;20198;-88
2023/01/02 02:25:49;;;;;;;8.47;2.33;;;;;;;14.18;61.60;100037.41;10347653;28;20520;-86
2023/01/02 02:31:43;;;;;;;5.17;2.13;;;;;;;14.06;62.15;100043.00;10344672;28;20252;-84
2023/01/02 02:37:21;;;;;;;7.07;2.03;;;;;;;14.32;61.03;100047.56;10341997;28;20193;-88
2023/01/02 02:43:08;;;;;;;4.53;2.05;;;;;;;14.59;59.97;100038.50;10326845;28;20622;-88
2023/01/02 02:48:41;;;;;;;10.53;2.27;;;;;;;14.23;61.03;100030.69;10339493;28;20547;-86
2023/01/02 02:54:12;;;;;;;7.43;2.20;;;;;;;14.48;60.90;100040.06;10328472;28;20288;-88
2023/01/02 02:59:35;;;;;;;8.13;2.10;;;;;;;13.99;61.19;100028.63;10321828;28;20222;-87
2023/01/02 03:05:02;;;;;;;6.60;1.90;;;;;;;14.47;59.84;100044.06;10318467;28;20194;-87
2023/01/02 03:10:45;;;;;;;6.27;1.77;;;;;;;14.60;60.33;100026.81;10334016;28;20244;-88
2023/01/02 03:16:27;;;;;;;6.27;2.20;;;;;;;14.46;60.90;100011.38;10313437;28;20233;-87
2023/01/02 03:22:00;;;;;;;9.87;2.13;;;;;;;14.50;60.56;100009.53;10327657;28;20202;-89
2023/01/02 03:27:26;;;;;;;8.88;2.33;;;;;;;14.23;61.82;100006.13;10323382;28;20202;-86
2023/01/02 03:32:57;;;;;;;6.83;2.00;;;;;;;14.41;60.89;100020.06;10329406;28;20280;-86
2023/01/02 03:38:27;;;;;;;4.80;1.80;;;;;;;14.60;60.15;100023.22;10336031;28;20218;-89
2023/01/02 03:43:51;;;;;;;5.57;2.00;;;;;;;14.57;60.63;100043.66;10337110;28;20197;-88
2023/01/02 03:49:17;;;;;;;8.53;2.43;;;;;;;14.69;61.07;100040.84;10314435;28;20256;-88
2023/01/02 03:54:39;;;;;;;6.33;2.30;;;;;;;14.48;61.73;100063.47;10335862;28;20269;-88
2023/01/02 04:00:14;;;;;;;7.63;2.13;;;;;;;14.30;63.63;100058.34;10355936;28;20194;-89
2023/01/02 04:06:13;;;;;;;7.00;2.20;;;;;;;14.16;63.58;100053.84;10355787;28;20591;-86
2023/01/02 04:11:38;;;;;;;8.68;2.38;;;;;;;13.68;65.15;100045.97;10270595;28;20673;-89
2023/01/02 04:17:02;;;;;;;8.37;2.40;;;;;;;14.03;64.41;100040.03;10335627;28;20717;-85
2023/01/02 04:22:35;;;;;;;7.40;2.73;;;;;;;14.11;64.35;100059.69;10343553;28;20213;-88
2023/01/02 04:28:01;;;;;;;8.17;2.80;;;;;;;13.82;65.45;100056.97;10349192;28;20202;-89
2023/01/02 04:33:23;;;;;;;11.03;2.70;;;;;;;14.50;62.90;100051.84;10335789;28;20218;-88
2023/01/02 04:38:46;;;;;;;7.40;2.60;;;;;;;13.91;63.75;100049.25;10342048;28;20448;-88
2023/01/02 04:44:08;;;;;;;9.93;2.83;;;;;;;14.06;63.54;100033.72;10332079;28;20201;-87
2023/01/02 04:49:30;;;;;;;6.13;2.27;;;;;;;13.85;63.93;100036.53;10343931;28;20599;-90
2023/01/02 04:54:52;;;;;;;6.47;2.25;;;;;;;13.96;62.77;100045.38;10335322;28;20230;-90
2023/01/02 05:00:14;;;;;;;6.43;2.37;;;;;;;14.12;62.08;100052.88;10338073;28;20586;-88
2023/01/02 05:05:38;;;;;;;7.88;1.77;;;;;;;14.03;62.67;100052.13;10331772;28;20197;-87
2023/01/02 05:11:11;;;;;;;5.40;1.90;;;;;;;14.12;61.19;100055.69;10334882;28;20252;-86
2023/01/02 05:16:34;;;;;;;8.23;2.70;;;;;;;14.26;60.42;100067.50;10322397;28;20677;-90
2023/01/02 05:27:36;;;;;;;5.17;2.17;;;;;;;14.11;59.40;100076.59;10347901;28;20198;-88
2023/01/02 05:32:59;;;;;;;4.85;1.75;;;;;;;14.05;59.66;100082.81;10325689;28;20546;-88
2023/01/02 05:38:21;;;;;;;3.50;1.48;;;;;;;13.81;60.21;100077.88;10340024;28;20471;-86
2023/01/02 05:43:43;;;;;;;5.80;1.92;;;;;;;13.87;60.60;100088.59;10343062;28;20249;-86
2023/01/02 05:49:06;;;;;;;5.95;2.25;;;;;;;13.98;60.51;100089.00;10342781;28;20236;-86
2023/01/02 05:54:29;;;;;;;5.37;1.97;;;;;;;13.93;61.09;100086.41;10352446;28;20307;-85
2023/01/02 05:59:51;;;;;;;7.13;1.97;;;;;;;13.76;61.82;100095.00;10350799;28;20268;-84
2023/01/02 06:05:13;;;;;;;7.43;2.00;;;;;;;13.82;61.67;100102.09;10333793;28;20194;-83
2023/01/02 06:10:35;;;;;;;8.83;1.80;;;;;;;14.19;60.40;100101.13;10327547;28;20202;-85
2023/01/02 06:15:59;;;;;;;6.30;2.10;;;;;;;13.92;60.70;100107.31;10344600;28;20226;-88
2023/01/02 06:21:21;;;;;;;7.70;1.73;;;;;;;13.59;61.15;100114.81;10329851;28;20190;-87
2023/01/02 06:26:44;;;;;;;6.37;2.30;;;;;;;14.17;60.21;100108.25;10344155;28;20190;-87
2023/01/02 06:32:06;;;;;;;6.00;1.90;;;;;;;14.23;59.31;100124.63;10325462;28;20206;-90
2023/01/02 06:37:28;;;;;;;7.10;1.97;;;;;;;14.26;60.50;100123.09;10313983;28;20261;-87
2023/01/02 06:42:50;;;;;;;6.43;1.75;;;;;;;14.27;59.93;100128.41;10336141;28;20233;-88
2023/01/02 06:48:12;;;;;;;3.20;1.17;;;;;;;14.46;58.72;100132.72;10340835;28;20202;-92
2023/01/02 06:53:36;;;;;;;5.88;1.80;;;;;;;13.97;60.47;100137.28;10349699;28;20202;-89
2023/01/02 06:58:58;;;;;;;3.85;1.55;;;;;;;14.28;59.10;100127.25;10341058;28;20230;-90
2023/01/02 07:04:20;;;;;;;7.57;1.97;;;;;;;14.25;59.83;100146.84;10327720;28;20205;-89
2023/01/02 07:09:42;;;;;;;2.60;1.00;;;;;;;14.20;59.68;100141.44;10333243;28;20205;-88
2023/01/02 07:15:06;;;;;;;5.40;1.70;;;;;;;14.12;60.75;100133.84;10341456;28;20217;-83
2023/01/02 07:20:28;;;;;;;4.95;1.83;;;;;;;14.11;60.45;100147.13;10337378;28;20202;-92
2023/01/02 07:25:55;;;;;;;5.97;1.67;;;;;;;14.54;60.21;100148.78;10342592;28;20178;-86
2023/01/02 07:31:18;;;;;;;6.33;1.40;;;;;;;15.05;58.32;100155.06;10324958;28;20255;-89
2023/01/02 07:36:40;;;;;;;2.65;1.20;;;;;;;14.33;60.61;100160.06;10330651;28;20210;-89
2023/01/02 07:42:03;;;;;;;3.73;1.33;;;;;;;13.74;62.46;100168.63;10338872;28;20248;-83
2023/01/02 07:47:25;;;;;;;3.77;1.20;;;;;;;13.86;62.37;100177.16;10337681;28;20201;-83
2023/01/02 07:52:47;;;;;;;6.50;1.60;;;;;;;14.19;63.65;100191.38;10320105;28;20206;-82
2023/01/02 07:58:10;;;;;;;3.33;1.85;;;;;;;13.87;64.78;100212.66;10323327;28;20275;-83
2023/01/02 08:03:32;;;;;;;5.07;1.23;;;;;;;14.16;64.00;100214.63;10338342;28;20550;-86
2023/01/02 08:08:54;;;;;;;3.07;1.20;;;;;;;14.14;64.22;100216.13;10350297;28;20202;-86
2023/01/02 08:14:16;;;;;;;5.28;1.58;;;;;;;14.00;64.43;100215.56;10336933;28;20277;-90
2023/01/02 08:19:39;;;;;;;4.70;1.50;;;;;;;13.66;65.98;100233.50;10320997;28;20500;-89
2023/01/02 08:25:01;;;;;;;5.10;2.20;;;;;;;14.04;64.95;100230.66;10331657;28;20190;-87
2023/01/02 08:30:23;;;;;;;4.80;1.90;;;;;;;13.37;66.31;100249.16;10336905;28;20202;-87
2023/01/02 08:35:46;;;;;;;4.20;2.13;;;;;;;13.57;67.09;100264.50;10333602;28;20209;-86
2023/01/02 08:41:08;;;;;;;8.70;2.40;;;;;;;13.68;66.60;100271.47;10332563;28;20250;-89
2023/01/02 08:46:31;;;;;;;6.20;1.93;;;;;;;13.63;67.21;100282.09;10333658;28;20216;-84
2023/01/02 08:51:53;;;;;;;3.90;2.00;;;;;;;13.96;66.28;100283.09;10334451;28;20468;-85
2023/01/02 08:57:15;;;;;;;10.20;2.40;;;;;;;13.91;67.17;100303.03;10325045;28;20304;-85
2023/01/02 09:02:37;;;;;;;4.80;2.57;;;;;;;13.69;68.79;100314.59;10332791;28;20202;-86
2023/01/02 09:08:01;;;;;;;7.10;2.23;;;;;;;13.52;69.13;100324.72;10328262;28;20194;-89
2023/01/02 09:13:23;;;;;;;5.30;1.90;;;;;;;13.30;69.95;100343.81;10338700;28;20305;-85
2023/01/02 09:18:45;;;;;;;5.22;2.00;;;;;;;12.91;71.67;100353.28;10322570;28;20204;-87
2023/01/02 09:24:07;;;;;;;4.67;2.27;;;;;;;13.81;68.95;100399.28;10310501;28;20558;-88
2023/01/02 09:29:29;;;;;;;3.27;0.83;;;;;;;13.16;68.23;100406.78;10320743;28;20201;-89
2023/01/02 09:34:51;;;;;;;1.33;0.40;;;;;;;13.08;67.93;100418.03;10329500;28;20260;-89
2023/01/02 09:40:15;;;;;;;2.53;0.80;;;;;;;12.75;69.73;100426.94;10318916;28;20305;-89
2023/01/02 09:45:41;;;;;;;0.90;0.60;;;;;;;13.31;68.36;100425.16;10334213;28;20502;-90
2023/01/02 09:51:05;;;;;;;1.92;0.60;;;;;;;12.96;70.59;100440.38;10320594;28;20198;-90
2023/01/02 09:56:39;;;;;;;1.40;0.63;;;;;;;13.32;69.16;100443.72;10344631;28;20276;-91
2023/01/02 10:02:04;;;;;;;0.50;0.50;;;;;;;12.97;68.77;100458.94;10336051;28;20202;-90
2023/01/02 10:07:57;;;;;;;1.43;0.63;;;;;;;13.12;67.44;100467.75;10319481;28;20198;-86
2023/01/02 10:13:26;;;;;;;1.70;0.50;;;;;;;13.04;67.13;100471.41;10322713;28;20225;-88
2023/01/02 10:18:51;;;;;;;0.97;0.30;;;;;;;13.17;67.04;100486.50;10328161;28;20198;-87
2023/01/02 10:24:20;;;;;;;0.80;0.80;;;;;;;13.18;66.40;100505.03;10341399;28;20209;-90
2023/01/02 10:30:05;;;;;;;1.83;1.20;;;;;;;12.83;67.23;100510.56;10340074;28;20380;-88
2023/01/02 10:35:59;;;;;;;2.00;0.50;;;;;;;12.68;66.61;100511.03;10348891;28;20236;-85
2023/01/02 10:41:21;;;;;;;1.13;0.73;;;;;;;13.41;64.32;100500.94;10336314;28;20217;-84
2023/01/02 10:46:43;;;;;;;0.93;0.70;;;;;;;12.85;65.25;100513.91;10340180;28;20252;-84
2023/01/02 10:52:29;;;;;;;1.33;1.00;;;;;;;12.65;65.93;100513.69;10343639;28;20189;-89
2023/01/02 10:57:51;;;;;;;0.80;0.80;;;;;;;12.58;65.64;100514.09;10348717;28;20236;-90
2023/01/02 11:03:21;;;;;;;1.20;1.17;;;;;;;12.61;65.47;100509.81;10345199;28;20239;-87
2023/01/02 11:08:43;;;;;;;1.40;1.30;;;;;;;12.45;65.20;100523.47;10352803;28;20193;-84
2023/01/02 11:14:07;;;;;;;1.77;1.67;;;;;;;12.91;64.55;100525.03;10324759;28;20194;-90
2023/01/02 11:19:29;;;;;;;2.10;1.93;;;;;;;12.57;65.98;100531.31;10337484;28;20249;-91
2023/01/02 11:24:58;;;;;;;3.60;3.30;;;;;;;12.62;66.67;100526.38;10339209;28;20185;-91
2023/01/02 11:30:41;;;;;;;4.03;3.60;;;;;;;12.52;66.25;100537.94;10339839;28;20538;-90
2023/01/02 11:36:05;;;;;;;5.13;4.63;;;;;;;12.09;68.36;100541.31;10357037;28;20244;-90
2023/01/02 11:47:33;;;;;;;5.33;4.83;;;;;;;12.12;67.26;100554.72;10350352;28;20599;-91
2023/01/02 11:53:10;;;;;;;7.60;5.90;;;;;;;13.20;64.21;100557.06;10340513;28;20639;-88
2023/01/02 11:58:32;;;;;;;6.70;6.00;;;;;;;12.91;64.09;100564.44;10337732;28;20210;-89
2023/01/02 12:03:55;;;;;;;7.03;6.38;;;;;;;13.22;63.47;100551.09;10338763;28;20190;-87
2023/01/02 12:09:47;;;;;;;8.60;7.80;;;;;;;12.79;65.05;100567.84;10320967;28;20546;-90
2023/01/02 12:15:33;;;;;;;9.03;7.03;;;;;;;13.04;63.80;100560.69;10333690;28;20276;-89
2023/01/02 12:21:09;;;;;;;8.53;7.73;;;;;;;13.39;63.17;100568.03;10323902;28;20260;-84
2023/01/02 12:26:53;;;;;;;8.00;7.30;;;;;;;13.23;62.79;100580.94;10335679;28;20248;-88
2023/01/02 12:32:44;;;;;;;8.07;7.37;;;;;;;12.81;63.97;100579.63;10341788;28;20201;-89
2023/01/02 12:38:08;;;;;;;7.60;6.80;;;;;;;13.31;63.04;100587.72;10328144;28;20644;-88
2023/01/02 12:43:42;;;;;;;8.30;7.60;;;;;;;12.63;64.92;100589.97;10334369;28;20257;-85
2023/01/02 12:49:26;;;;;;;9.33;8.53;;;;;;;12.51;63.99;100592.53;10334301;28;20194;-89
2023/01/02 12:54:59;;;;;;;8.80;7.87;;;;;;;12.49;65.00;100615.38;10350307;28;20224;-86
2023/01/02 13:00:40;;;;;;;9.03;8.13;;;;;;;13.23;62.14;100619.53;10332765;28;20733;-85
2023/01/02 13:06:13;;;;;;;8.60;7.80;;;;;;;12.85;63.57;100623.69;10348089;28;20808;-88
2023/01/02 13:11:49;;;;;;;9.10;7.57;;;;;;;13.41;61.27;100610.81;10324813;28;20206;-89
2023/01/02 13:17:11;;;;;;;8.10;7.30;;;;;;;12.85;63.49;100620.88;10304003;28;20225;-86
2023/01/02 13:22:49;;;;;;;8.70;7.80;;;;;;;13.08;61.97;100612.34;10328322;28;20197;-84
2023/01/02 13:28:12;;;;;;;6.20;5.57;;;;;;;12.82;62.86;100615.91;10313294;28;20202;-86
2023/01/02 13:33:43;;;;;;;6.80;5.53;;;;;;;12.66;62.50;100633.50;10310830;28;20496;-87
2023/01/02 13:39:37;;;;;;;6.77;5.40;;;;;;;12.81;62.37;100622.69;10327904;28;20229;-87
2023/01/02 13:45:00;;;;;;;5.88;4.72;;;;;;;12.86;62.68;100630.16;10331402;28;20673;-84
2023/01/02 13:50:28;;;;;;;5.80;5.20;;;;;;;13.42;60.26;100640.66;10333201;28;20198;-83
2023/01/02 13:56:09;;;;;;;7.37;4.87;;;;;;;12.29;64.45;100657.22;10339794;28;20205;-85
2023/01/02 14:01:41;;;;;;;6.27;5.67;;;;;;;13.83;59.05;100651.53;10334478;28;20198;-84
2023/01/02 14:07:25;;;;;;;6.70;4.97;;;;;;;12.92;61.53;100647.72;10343077;28;20248;-88
2023/01/02 14:12:52;;;;;;;6.90;5.77;;;;;;;12.61;62.01;100659.78;10328486;28;20684;-84
2023/01/02 14:18:25;;;;;;;8.77;6.07;;;;;;;12.63;62.50;100651.91;10338921;28;20213;-85
2023/01/02 14:23:48;;;;;;;7.20;5.70;;;;;;;12.42;63.10;100665.59;10329159;28;20221;-82
2023/01/02 14:29:12;;;;;;;7.90;6.57;;;;;;;12.67;62.33;100697.09;10301263;28;20206;-88
2023/01/02 14:34:41;;;;;;;6.30;5.70;;;;;;;12.44;62.61;100704.69;10323352;28;20210;-85
2023/01/02 14:40:22;;;;;;;6.37;5.53;;;;;;;12.61;61.16;100710.44;10336460;28;20296;-84
2023/01/02 14:45:55;;;;;;;5.57;4.70;;;;;;;12.61;60.27;100712.44;10345051;28;20240;-83
2023/01/02 14:51:37;;;;;;;5.43;4.20;;;;;;;12.33;60.38;100715.34;10339422;28;20483;-86
2023/01/02 14:57:15;;;;;;;4.40;3.33;;;;;;;12.06;59.06;100716.28;10327358;28;20307;-87
2023/01/02 15:02:40;;;;;;;3.57;2.90;;;;;;;12.67;58.23;100723.25;10334471;28;20194;-86
2023/01/02 15:08:07;;;;;;;4.40;3.17;;;;;;;12.79;59.38;100740.41;10328589;28;20198;-86
2023/01/02 15:13:31;;;;;;;5.50;4.23;;;;;;;12.76;59.70;100724.16;10337235;28;20499;-84
2023/01/02 15:18:57;;;;;;;6.30;4.03;;;;;;;12.61;60.40;100747.03;10343313;28;20272;-86
2023/01/02 15:24:22;;;;;;;7.20;5.10;;;;;;;12.34;61.59;100752.75;10348551;28;20202;-88
2023/01/02 15:29:46;;;;;;;8.33;5.23;;;;;;;12.61;60.45;100763.91;10327796;28;20458;-82
2023/01/02 15:35:21;;;;;;;10.00;6.30;;;;;;;12.71;61.02;100766.50;10332452;28;20653;-88
2023/01/02 15:40:43;;;;;;;8.80;6.63;;;;;;;12.47;61.01;100768.75;10344125;28;20538;-87
2023/01/02 15:46:06;;;;;;;8.07;5.73;;;;;;;12.67;60.93;100770.28;10328837;28;20217;-85
2023/01/02 15:51:29;;;;;;;9.40;6.80;;;;;;;12.08;62.85;100766.56;10328348;28;20206;-89
2023/01/02 15:56:51;;;;;;;7.37;6.23;;;;;;;12.33;61.18;100776.41;10330559;28;20268;-88
2023/01/02 16:02:41;;;;;;;8.33;5.80;;;;;;;12.47;60.56;100794.09;10302681;28;20249;-81
2023/01/02 16:08:03;;;;;;;7.97;5.70;;;;;;;12.01;61.44;100814.78;10321365;28;20197;-83
2023/01/02 16:19:30;;;;;;;8.37;4.90;;;;;;;12.08;61.79;100825.63;10344697;28;20229;-83
2023/01/02 16:24:57;;;;;;;6.10;4.80;;;;;;;12.35;60.82;100836.00;10334874;28;20203;-84
2023/01/02 16:30:29;;;;;;;7.00;5.23;;;;;;;12.26;61.48;100846.34;10329223;28;20189;-86
2023/01/02 16:36:23;;;;;;;7.47;5.43;;;;;;;12.24;61.69;100857.91;10326409;28;20209;-87
2023/01/02 16:42:33;;;;;;;7.30;6.40;;;;;;;12.01;63.61;100861.75;10333102;28;20230;-88
2023/01/02 16:47:40;;;;;;;7.87;6.30;;;;;;;12.06;62.38;100867.28;10333752;28;20206;-84
2023/01/02 16:53:05;;;;;;;8.40;6.60;;;;;;;12.13;62.66;100874.16;10312497;28;20230;-83
2023/01/02 16:58:28;;;;;;;8.23;6.50;;;;;;;12.04;63.21;100887.25;10313812;28;20249;-85
2023/01/02 17:03:52;;;;;;;8.83;6.67;;;;;;;12.11;62.81;100887.69;10305381;28;20249;-84
2023/01/02 17:09:15;;;;;;;7.40;5.80;;;;;;;11.79;64.02;100887.75;10318554;28;20225;-88
2023/01/02 17:14:38;;;;;;;6.97;5.77;;;;;;;11.95;63.66;100908.00;10342242;28;20205;-87
2023/01/02 17:20:02;;;;;;;7.17;5.37;;;;;;;12.06;62.99;100923.50;10335804;28;20613;-84
2023/01/02 17:25:25;;;;;;;7.33;6.13;;;;;;;11.42;67.11;100936.44;10335337;28;20236;-83
2023/01/02 17:30:48;;;;;;;7.77;5.80;;;;;;;11.24;68.31;100924.09;10319898;28;20527;-82
2023/01/02 17:36:13;;;;;;;12.90;8.43;;;;;;;11.07;67.15;100924.66;10306767;28;20277;-92
2023/01/02 17:41:37;;;;;;;3.70;3.13;;;;;;;11.29;64.31;100943.69;10323079;28;20277;-87
2023/01/02 17:47:00;;;;;;;2.60;2.33;;;;;;;11.31;63.63;100941.41;10346119;28;20194;-92
2023/01/02 17:52:23;;;;;;;1.37;1.10;;;;;;;10.80;64.22;100951.75;10346033;28;20186;-90
2023/01/02 17:57:46;;;;;;;1.47;1.10;;;;;;;10.51;64.96;100972.28;10311535;28;20225;-88
2023/01/02 18:03:09;;;;;;;2.37;0.93;;;;;;;11.09;62.86;100977.72;10332061;28;20189;-86
2023/01/02 18:08:33;;;;;;;1.50;0.80;;;;;;;11.55;60.52;100989.03;10313469;28;20206;-86
2023/01/02 18:14:01;;;;;;;1.40;0.40;;;;;;;10.97;62.20;101008.19;10344344;28;20566;-87
2023/01/02 18:19:32;;;;;;;0.70;0.60;;;;;;;10.93;62.08;101013.59;10335150;28;20295;-87
2023/01/02 18:24:55;;;;;;;2.97;0.40;;;;;;;11.14;61.54;101030.97;10310236;28;20233;-86
2023/01/02 18:30:23;;;;;;;0.87;0.70;;;;;;;11.17;61.33;101041.59;10321951;28;20498;-86
2023/01/02 18:35:49;;;;;;;3.77;0.70;;;;;;;11.01;62.27;101049.38;10329813;28;20294;-85
2023/01/02 18:41:23;;;;;;;1.47;0.70;;;;;;;10.79;62.38;101059.50;10311279;28;20257;-88
2023/01/02 18:46:47;;;;;;;3.00;1.10;;;;;;;10.86;62.90;101062.78;10305767;28;21719;-84
2023/01/02 18:52:23;;;;;;;1.90;1.20;;;;;;;10.49;64.79;101080.28;10316392;28;20292;-86
2023/01/02 18:57:46;;;;;;;1.13;1.00;;;;;;;10.48;64.13;101085.06;10297400;28;20273;-84
2023/01/02 19:03:23;;;;;;;1.03;0.80;;;;;;;10.87;63.02;101089.72;10303610;28;20233;-85
2023/01/02 19:08:45;;;;;;;3.23;1.60;;;;;;;10.22;64.40;101089.25;10308204;28;20265;-86
2023/01/02 19:14:21;;;;;;;4.63;1.50;;;;;;;10.82;62.34;101095.41;10325241;28;20222;-86
2023/01/02 19:19:44;;;;;;;2.00;1.30;;;;;;;10.15;64.15;101112.03;10291091;28;20257;-83
2023/01/02 19:25:18;;;;;;;6.30;1.63;;;;;;;10.48;63.89;101115.91;10320498;28;20233;-84
2023/01/02 19:30:44;;;;;;;4.63;2.20;;;;;;;10.49;63.76;101134.44;10302779;28;20620;-85
2023/01/02 19:36:14;;;;;;;3.03;1.73;;;;;;;10.55;63.67;101146.47;10315529;28;20230;-83
2023/01/02 19:47:19;;;;;;;6.70;3.80;;;;;;;10.57;62.96;101155.44;10320980;28;20221;-82
2023/01/02 19:52:42;;;;;;;4.03;2.10;;;;;;;10.60;63.40;101172.50;10311441;28;20524;-85
2023/01/02 19:58:04;;;;;;;4.37;1.87;;;;;;;10.63;63.33;101176.69;10306375;28;20249;-85
2023/01/02 20:03:26;;;;;;;3.13;2.07;;;;;;;10.66;63.88;101188.16;10299259;28;20238;-83
2023/01/02 20:08:50;;;;;;;3.43;2.33;;;;;;;10.54;63.90;101184.88;10302894;28;20238;-86
2023/01/02 20:14:12;;;;;;;4.33;2.50;;;;;;;10.97;62.72;101193.44;10304452;28;20241;-82
2023/01/02 20:19:35;;;;;;;5.00;2.83;;;;;;;11.09;62.39;101207.94;10309878;28;20641;-84
2023/01/02 20:24:57;;;;;;;7.23;3.20;;;;;;;11.02;62.52;101201.81;10307780;28;20248;-84
2023/01/02 20:30:21;;;;;;;4.33;2.93;;;;;;;11.10;61.99;101203.97;10321736;28;20224;-86
2023/01/02 20:35:44;;;;;;;4.60;3.60;;;;;;;10.76;63.73;101217.25;10323881;28;20229;-84
2023/01/02 20:41:06;;;;;;;4.93;3.67;;;;;;;11.16;63.20;101225.25;10331881;28;20736;-84
2023/01/02 20:46:28;;;;;;;4.67;3.67;;;;;;;10.24;65.10;101232.78;10321262;28;20229;-84
2023/01/02 20:51:54;;;;;;;5.77;4.77;;;;;;;11.10;61.67;101237.66;10315462;28;20234;-84
2023/01/02 20:57:16;;;;;;;5.67;3.83;;;;;;;11.22;61.67;101249.34;10318260;28;20292;-84
2023/01/02 21:02:39;;;;;;;6.63;4.93;;;;;;;10.74;63.22;101256.81;10308911;28;20243;-85
2023/01/02 21:08:01;;;;;;;6.67;5.33;;;;;;;11.09;61.64;101264.09;10314126;28;20685;-85
2023/01/02 21:13:23;;;;;;;6.10;5.40;;;;;;;11.04;62.25;101264.13;10332721;28;20194;-84
2023/01/02 21:18:46;;;;;;;10.03;6.13;;;;;;;11.50;60.43;101270.06;10321678;28;20578;-85
2023/01/02 21:24:08;;;;;;;8.17;5.67;;;;;;;10.39;63.94;101277.56;10355905;28;20214;-85
2023/01/02 21:29:30;;;;;;;6.40;5.70;;;;;;;10.29;64.44;101284.09;10327690;28;20221;-85
2023/01/02 21:34:52;;;;;;;8.53;6.07;;;;;;;10.28;64.71;101292.78;10325653;28;20619;-82
2023/01/02 21:40:15;;;;;;;6.10;4.63;;;;;;;10.86;61.26;101298.53;10321187;28;20781;-84
2023/01/02 21:45:37;;;;;;;9.23;5.20;;;;;;;10.65;62.90;101300.69;10319809;28;20198;-84
2023/01/02 21:50:59;;;;;;;6.23;4.83;;;;;;;10.84;60.44;101317.66;10322380;28;20210;-85
2023/01/02 21:56:22;;;;;;;8.20;5.07;;;;;;;10.82;60.85;101314.31;10324983;28;20234;-86
2023/01/02 22:01:44;;;;;;;6.27;5.20;;;;;;;10.96;60.28;101323.75;10319582;28;20268;-84
2023/01/02 22:07:06;;;;;;;6.53;4.97;;;;;;;10.46;60.56;101322.94;10335924;28;20189;-83
2023/01/02 22:12:28;;;;;;;6.03;4.53;;;;;;;10.81;60.50;101329.47;10327825;28;20248;-85
2023/01/02 22:17:51;;;;;;;5.47;4.90;;;;;;;9.77;62.65;101343.50;10341096;28;20214;-87
2023/01/02 22:23:13;;;;;;;9.17;4.83;;;;;;;10.86;58.72;101347.09;10333781;28;20206;-86
2023/01/02 22:28:36;;;;;;;5.17;4.43;;;;;;;10.69;59.08;101361.56;10342131;28;20186;-85
2023/01/02 22:33:59;;;;;;;6.57;4.57;;;;;;;10.58;60.14;101373.13;10326454;28;20666;-86
2023/01/02 22:39:21;;;;;;;9.37;5.03;;;;;;;10.95;58.69;101384.66;10339577;28;20280;-86
2023/01/02 22:44:44;;;;;;;7.60;5.57;;;;;;;10.76;59.73;101396.84;10323714;28;20280;-86
2023/01/02 22:50:07;;;;;;;7.20;4.87;;;;;;;11.22;58.00;101389.78;10357547;28;20749;-86
2023/01/02 22:55:29;;;;;;;7.20;5.13;;;;;;;10.95;58.21;101397.84;10318275;28;20234;-87
2023/01/02 23:01:00;;;;;;;9.23;5.17;;;;;;;11.14;57.43;101397.97;10321728;28;20260;-85
2023/01/02 23:06:23;;;;;;;7.73;5.70;;;;;;;10.79;58.52;101388.69;10322901;28;20550;-87
2023/01/02 23:11:46;;;;;;;11.03;6.60;;;;;;;10.45;59.82;101402.59;10335225;28;20209;-85
2023/01/02 23:22:52;;;;;;;14.70;9.70;;;;;;;10.56;60.06;101425.88;10351105;28;20224;-85
2023/01/02 23:28:15;;;;;;;12.17;10.37;;;;;;;10.67;60.08;101435.91;10329487;28;20252;-85
2023/01/02 23:33:37;;;;;;;14.43;10.97;;;;;;;10.66;59.77;101429.47;10335483;28;20225;-87
2023/01/02 23:38:59;;;;;;;14.97;12.30;;;;;;;9.92;61.81;101424.72;10338736;28;20217;-86
2023/01/02 23:44:23;;;;;;;14.97;11.63;;;;;;;10.28;61.75;101427.38;10337451;28;20194;-86
2023/01/02 23:49:45;;;;;;;16.50;11.83;;;;;;;10.00;62.18;101438.13;10330938;28;20225;-86
2023/01/02 23:55:08;;;;;;;14.60;11.17;;;;;;;10.19;61.39;101448.75;10355520;28;20228;-86
